Řízení letového provozu České republiky
Letiste: LKMT Aktualizace: 12.11.2018 21:01:06  UTC
 METAR LKMT 12.11. 21:00 ...
METAR LKMT 122100Z 20003KT CAVOK 10/07 Q1023 NOSIG RMK REG QNH 1019=
 TAF LKMT 12.11. 17:00 ...
TAF LKMT 121700Z 1218/1400 21010KT 9999 SCT035      TEMPO 1311/1319 24014G24KT      BECMG 1317/1319 BKN025=